Batman Airport Batman TR
ICAO: LTCJ
IATA: BAL
Category: Medium
Scheduled Services: Yes

Elevation: 1822 ft
TransAlt. 7000 ft.

Airport Communications:
DIYARBAKIR APP:122.1
GND:121.95
TWR:122.1

LTCJ Zoom In..

If you have problems with the map follow the link
https://www.worldairports.se/pages/airport.php?
ICAO=LTCJ

Runways:

(A) RW 02 length 10000 ft width 148 ft
ILS 108.10 / hdg 21

(B) RW 20 length 10000 ft width 148 ft
---- / hdg 201

Location; LTCJ
Day. 13 / Time. 19.50 Zulu
* QNH: 1024
* Temperature: 01° c. 33.8°f.
* Wind from: 030° Speed 06 kn.
Dewpoint: 01° c.
Visibility: 10 km or more.
Clouds: Few 1000 ft.

LTCJ 131950Z 03006KT 9999 FEW100 01/01 Q1024


Wind From 030°
Speed 06 kn.

 
 
jpsmedia.com for Web Design worldairports.se 2018   terms of use